Time;durP1;ratioP1;P1;durP2;ratioP2;P2;SDS_P1;SDS_P2;PMS_P1;PMS_P2;Temp;Humidity;BMP_temperature;BMP_pressure;BME280_temperature;BME280_humidity;BME280_pressure;Samples;Min_cycle;Max_cycle;Signal;HPM_P1;HPM_P2
2021/01/06 00:01:32;;;;;;;2.63;2.15;;;18.20;55.00;;;;;;5106586;28;20177;-60
2021/01/06 00:03:58;;;;;;;3.30;2.38;;;18.00;55.00;;;;;;5105970;28;21007;-60
2021/01/06 00:06:29;;;;;;;2.20;2.00;;;18.10;55.00;;;;;;5106389;28;20215;-59
2021/01/06 00:08:55;;;;;;;2.88;2.33;;;18.00;55.10;;;;;;5106055;28;20188;-62
2021/01/06 00:11:22;;;;;;;2.35;2.15;;;18.00;55.10;;;;;;5106025;28;20181;-59
2021/01/06 00:13:48;;;;;;;2.30;2.05;;;18.00;55.20;;;;;;5106006;28;20282;-63
2021/01/06 00:16:13;;;;;;;2.05;1.95;;;17.90;55.20;;;;;;5106223;28;20205;-61
2021/01/06 00:18:39;;;;;;;3.25;2.65;;;17.90;55.20;;;;;;5105941;28;20539;-62
2021/01/06 00:21:05;;;;;;;2.20;2.00;;;17.80;55.10;;;;;;5106156;28;20270;-62
2021/01/06 00:23:30;;;;;;;2.95;1.98;;;17.80;55.20;;;;;;5105653;28;20197;-61
2021/01/06 00:25:56;;;;;;;2.17;1.98;;;17.80;55.20;;;;;;5106132;28;20252;-62
2021/01/06 00:28:22;;;;;;;3.03;1.92;;;17.80;55.30;;;;;;5106212;28;20227;-60
2021/01/06 00:30:57;;;;;;;2.47;2.28;;;17.80;55.30;;;;;;5105801;28;20173;-61
2021/01/06 00:33:25;;;;;;;2.75;2.40;;;17.70;55.20;;;;;;5087595;28;20654;-61
2021/01/06 00:35:56;;;;;;;1.80;1.70;;;17.70;55.20;;;;;;5105847;28;20206;-61
2021/01/06 00:38:22;;;;;;;2.38;2.17;;;17.70;55.30;;;;;;5105557;28;20176;-62
2021/01/06 00:40:48;;;;;;;2.15;2.03;;;17.70;55.30;;;;;;5105833;28;20173;-61
2021/01/06 00:43:15;;;;;;;2.53;2.05;;;17.70;55.30;;;;;;5105575;28;20244;-60
2021/01/06 00:45:40;;;;;;;2.38;1.92;;;17.60;55.30;;;;;;5105421;28;20192;-61
2021/01/06 00:48:06;;;;;;;2.00;1.80;;;17.60;55.20;;;;;;5105736;28;20615;-60
2021/01/06 00:50:32;;;;;;;2.50;2.25;;;17.60;55.20;;;;;;5087475;28;20261;-61
2021/01/06 00:53:04;;;;;;;2.13;2.00;;;17.60;55.30;;;;;;5105181;28;20205;-61
2021/01/06 00:55:30;;;;;;;3.08;2.05;;;17.60;55.30;;;;;;5105601;28;20177;-59
2021/01/06 00:57:55;;;;;;;2.33;1.98;;;17.60;55.30;;;;;;5105147;28;20177;-60
2021/01/06 01:00:22;;;;;;;2.47;2.28;;;17.60;55.30;;;;;;5105076;28;20191;-60
2021/01/06 01:02:50;;;;;;;2.15;1.95;;;17.50;55.30;;;;;;5105051;28;20173;-61
2021/01/06 01:05:17;;;;;;;2.47;2.30;;;17.50;55.30;;;;;;5105256;28;20171;-59
2021/01/06 01:07:43;;;;;;;2.45;2.25;;;17.50;55.30;;;;;;5104987;28;20169;-60
2021/01/06 01:10:28;;;;;;;2.05;1.95;;;17.50;55.30;;;;;;5105272;28;20580;-60
2021/01/06 01:12:54;;;;;;;2.05;1.85;;;17.40;55.30;;;;;;5105210;28;20235;-61
2021/01/06 01:15:21;;;;;;;2.95;1.80;;;17.50;55.40;;;;;;5104548;28;20209;-60
2021/01/06 01:17:46;;;;;;;2.10;2.00;;;17.40;55.30;;;;;;5104599;28;20691;-61
2021/01/06 01:20:13;;;;;;;2.38;2.17;;;17.40;55.30;;;;;;5104959;28;20165;-60
2021/01/06 01:22:38;;;;;;;4.25;2.08;;;17.40;55.30;;;;;;5104551;28;20201;-63
2021/01/06 01:25:04;;;;;;;3.75;1.98;;;17.40;55.40;;;;;;5105136;28;20196;-62
2021/01/06 01:27:30;;;;;;;2.35;1.95;;;17.40;55.30;;;;;;5104735;28;20933;-61
2021/01/06 01:29:56;;;;;;;2.67;2.20;;;17.40;55.30;;;;;;5104913;28;20173;-62
2021/01/06 01:32:21;;;;;;;6.28;2.05;;;17.40;55.40;;;;;;5105108;28;20733;-61
2021/01/06 01:34:47;;;;;;;4.75;2.35;;;17.40;55.30;;;;;;5104580;28;20177;-62
2021/01/06 01:37:12;;;;;;;2.97;2.10;;;17.40;55.40;;;;;;5104883;28;20169;-61
2021/01/06 01:39:38;;;;;;;2.78;1.95;;;17.40;55.30;;;;;;5104327;28;20185;-63
2021/01/06 01:42:03;;;;;;;2.80;2.20;;;17.40;55.40;;;;;;5104607;28;20172;-62
2021/01/06 01:44:29;;;;;;;4.68;2.15;;;17.40;55.30;;;;;;5104435;28;20192;-61
2021/01/06 01:47:03;;;;;;;3.30;2.00;;;17.40;55.40;;;;;;5103944;28;20173;-65
2021/01/06 01:49:47;;;;;;;3.80;1.90;;;17.40;55.40;;;;;;5104478;28;20176;-61
2021/01/06 01:52:40;;;;;;;2.15;1.98;;;17.40;55.30;;;;;;5087250;28;20260;-58
2021/01/06 01:55:06;;;;;;;4.57;1.90;;;17.40;55.30;;;;;;5086063;28;20185;-62
2021/01/06 01:57:43;;;;;;;2.53;2.15;;;17.40;55.30;;;;;;5069612;28;20298;-61
2021/01/06 02:00:14;;;;;;;2.38;2.17;;;17.40;55.40;;;;;;5068986;28;20173;-61
2021/01/06 02:03:17;;;;;;;3.10;2.20;;;17.40;55.30;;;;;;5084527;28;20208;-62
2021/01/06 02:05:50;;;;;;;2.42;2.22;;;17.30;55.20;;;;;;5103103;28;20212;-62
2021/01/06 02:08:25;;;;;;;2.08;1.90;;;17.40;55.30;;;;;;5069529;28;20173;-61
2021/01/06 02:10:56;;;;;;;5.97;2.20;;;17.30;55.20;;;;;;5086265;28;20339;-61
2021/01/06 02:13:24;;;;;;;2.30;2.10;;;17.30;55.60;;;;;;5104464;28;20197;-61
2021/01/06 02:15:57;;;;;;;2.22;2.03;;;17.30;55.50;;;;;;5104470;28;20169;-61
2021/01/06 02:18:22;;;;;;;2.13;1.90;;;17.30;55.50;;;;;;5086085;28;20623;-61
2021/01/06 02:20:59;;;;;;;3.92;2.10;;;17.20;55.50;;;;;;5104169;28;20177;-61
2021/01/06 02:23:25;;;;;;;4.30;2.55;;;17.30;55.60;;;;;;5085969;28;20533;-61
2021/01/06 02:25:50;;;;;;;2.00;1.90;;;17.20;55.50;;;;;;5086269;28;20170;-60
2021/01/06 02:28:16;;;;;;;2.55;1.83;;;17.20;55.50;;;;;;5088735;28;20694;-60
2021/01/06 02:30:41;;;;;;;1.98;1.88;;;17.20;55.50;;;;;;5108038;28;20201;-60
2021/01/06 02:33:07;;;;;;;2.40;2.08;;;17.20;55.50;;;;;;5108059;28;20201;-60
2021/01/06 02:35:32;;;;;;;2.17;1.98;;;17.20;55.50;;;;;;5107904;28;20181;-59
2021/01/06 02:37:58;;;;;;;2.08;1.75;;;17.10;55.50;;;;;;5107907;28;20180;-58
2021/01/06 02:40:25;;;;;;;1.90;1.80;;;17.10;55.50;;;;;;5107957;28;20251;-60
2021/01/06 02:42:52;;;;;;;1.95;1.85;;;17.10;55.50;;;;;;5090011;28;20171;-61
2021/01/06 02:45:17;;;;;;;2.47;1.70;;;17.10;55.50;;;;;;5089561;28;20212;-61
2021/01/06 02:47:43;;;;;;;2.38;2.00;;;17.10;55.50;;;;;;5089886;28;20257;-60
2021/01/06 02:50:10;;;;;;;2.20;2.00;;;17.00;55.40;;;;;;5072622;28;20169;-61
2021/01/06 02:52:58;;;;;;;1.77;1.67;;;17.00;55.40;;;;;;5072835;28;20213;-58
2021/01/06 02:55:24;;;;;;;2.22;2.03;;;17.00;55.40;;;;;;5092783;28;20173;-59
2021/01/06 02:57:49;;;;;;;2.30;1.75;;;17.00;55.40;;;;;;5089596;28;20166;-60
2021/01/06 03:00:20;;;;;;;2.33;2.00;;;17.00;55.40;;;;;;5072562;28;20211;-61
2021/01/06 03:02:46;;;;;;;1.98;1.88;;;16.90;55.40;;;;;;5089754;28;20179;-60
2021/01/06 03:05:27;;;;;;;2.08;1.92;;;17.00;56.10;;;;;;5072064;28;20173;-60
2021/01/06 03:07:53;;;;;;;2.03;1.83;;;16.90;55.40;;;;;;5107436;28;20351;-60
2021/01/06 03:10:20;;;;;;;2.42;2.22;;;17.00;55.40;;;;;;5107567;28;20930;-60
2021/01/06 03:12:48;;;;;;;2.63;1.80;;;16.90;55.40;;;;;;5107133;28;20201;-61
2021/01/06 03:15:14;;;;;;;2.10;1.75;;;17.00;55.50;;;;;;5089514;28;20173;-60
2021/01/06 03:17:40;;;;;;;1.80;1.70;;;16.90;55.40;;;;;;5072089;28;20815;-61
2021/01/06 03:20:24;;;;;;;1.65;1.55;;;16.90;55.40;;;;;;5107395;28;20280;-62
2021/01/06 03:22:51;;;;;;;2.05;1.85;;;16.90;55.40;;;;;;5072871;28;20226;-58
2021/01/06 03:25:17;;;;;;;1.92;1.83;;;16.90;55.40;;;;;;5072736;28;20180;-60
2021/01/06 03:27:43;;;;;;;2.28;2.00;;;16.90;55.40;;;;;;5088766;28;20201;-57
2021/01/06 03:30:12;;;;;;;2.03;1.92;;;16.80;55.40;;;;;;5088814;28;20243;-56
2021/01/06 03:32:45;;;;;;;2.30;1.98;;;16.80;55.40;;;;;;5071789;28;20258;-57
2021/01/06 03:35:27;;;;;;;1.98;1.88;;;16.80;55.40;;;;;;5072655;28;20177;-59
2021/01/06 03:37:55;;;;;;;2.00;1.80;;;16.80;55.40;;;;;;5088642;28;20169;-59
2021/01/06 03:40:26;;;;;;;2.33;2.13;;;16.80;55.40;;;;;;5071018;28;20169;-61
2021/01/06 03:42:52;;;;;;;2.97;1.95;;;16.80;55.40;;;;;;5071494;28;20230;-61
2021/01/06 03:45:19;;;;;;;1.95;1.85;;;16.70;55.30;;;;;;5088567;28;20597;-60
2021/01/06 03:47:44;;;;;;;1.65;1.55;;;16.70;55.40;;;;;;5071522;28;20169;-59
2021/01/06 03:50:34;;;;;;;1.90;1.80;;;16.70;55.40;;;;;;5088484;28;20556;-59
2021/01/06 03:53:04;;;;;;;1.70;1.60;;;16.70;55.40;;;;;;5073959;28;20270;-60
2021/01/06 03:55:50;;;;;;;1.80;1.67;;;16.70;55.40;;;;;;5106954;28;20253;-58
2021/01/06 03:58:53;;;;;;;2.33;2.10;;;16.80;55.40;;;;;;5088442;28;20184;-58
2021/01/06 04:01:40;;;;;;;1.83;1.73;;;16.70;55.40;;;;;;5088279;28;20164;-60
2021/01/06 04:04:21;;;;;;;1.88;1.75;;;16.70;55.40;;;;;;5088288;28;20181;-57
2021/01/06 04:06:48;;;;;;;1.80;1.70;;;16.60;55.40;;;;;;5106364;28;20237;-59
2021/01/06 04:09:29;;;;;;;1.70;1.60;;;16.60;55.40;;;;;;5088261;28;20175;-60
2021/01/06 04:12:02;;;;;;;2.05;1.85;;;16.60;55.40;;;;;;5088157;28;20169;-60
2021/01/06 04:14:27;;;;;;;1.65;1.55;;;16.60;55.40;;;;;;5088676;28;20299;-59
2021/01/06 04:16:53;;;;;;;1.95;1.67;;;16.60;55.40;;;;;;5106146;28;20709;-61
2021/01/06 04:19:18;;;;;;;2.10;1.70;;;16.60;55.40;;;;;;5106237;28;20199;-60
2021/01/06 04:21:44;;;;;;;1.98;1.83;;;16.60;55.40;;;;;;5088455;28;20181;-61
2021/01/06 04:24:12;;;;;;;2.10;2.00;;;16.60;55.40;;;;;;5106047;28;20634;-60
2021/01/06 04:26:39;;;;;;;1.85;1.75;;;16.60;55.40;;;;;;5105972;28;20174;-61
2021/01/06 04:29:05;;;;;;;1.85;1.75;;;16.60;55.40;;;;;;5105807;28;20226;-60
2021/01/06 04:31:30;;;;;;;1.90;1.80;;;16.60;55.40;;;;;;5106092;28;20177;-59
2021/01/06 04:33:56;;;;;;;2.03;1.92;;;16.50;55.40;;;;;;5106127;28;20204;-59
2021/01/06 04:36:29;;;;;;;1.85;1.73;;;16.50;55.40;;;;;;5105848;28;20203;-61
2021/01/06 04:38:57;;;;;;;1.70;1.60;;;16.50;55.40;;;;;;5105596;28;20323;-61
2021/01/06 04:41:40;;;;;;;1.88;1.77;;;16.50;55.40;;;;;;5105497;28;20184;-62
2021/01/06 04:44:09;;;;;;;2.00;1.90;;;16.50;55.40;;;;;;5087724;28;20929;-61
2021/01/06 04:46:56;;;;;;;1.75;1.60;;;16.50;55.40;;;;;;5105724;28;20173;-61
2021/01/06 04:49:55;;;;;;;1.70;1.60;;;16.50;55.40;;;;;;5105319;28;20169;-60
2021/01/06 04:52:20;;;;;;;1.95;1.85;;;16.50;55.40;;;;;;5105380;28;20272;-61
2021/01/06 04:55:19;;;;;;;1.95;1.85;;;16.50;55.40;;;;;;5105352;28;20185;-59
2021/01/06 04:57:59;;;;;;;2.08;1.92;;;16.50;55.30;;;;;;5105424;28;20180;-61
2021/01/06 05:00:50;;;;;;;1.65;1.42;;;16.50;55.30;;;;;;5071764;28;20258;-61
2021/01/06 05:03:40;;;;;;;1.73;1.63;;;16.40;55.30;;;;;;5062372;28;20250;-61
2021/01/06 05:06:24;;;;;;;2.05;1.85;;;16.40;55.30;;;;;;5104819;28;20209;-60
2021/01/06 05:08:52;;;;;;;1.98;1.88;;;16.40;55.30;;;;;;5104957;28;21002;-58
2021/01/06 05:11:27;;;;;;;2.83;1.92;;;16.40;55.30;;;;;;5086825;28;20208;-61
2021/01/06 05:14:02;;;;;;;1.85;1.75;;;16.40;55.30;;;;;;5087044;28;20215;-59
2021/01/06 05:16:37;;;;;;;1.70;1.60;;;16.40;55.30;;;;;;5087470;28;20191;-60
2021/01/06 05:19:04;;;;;;;1.60;1.50;;;16.40;55.30;;;;;;5070096;28;20518;-61
2021/01/06 05:21:29;;;;;;;1.73;1.63;;;16.40;55.30;;;;;;5086695;28;20180;-61
2021/01/06 05:24:19;;;;;;;1.65;1.55;;;16.40;55.30;;;;;;5086600;28;20177;-61
2021/01/06 05:26:49;;;;;;;2.05;1.70;;;16.30;55.20;;;;;;5104595;28;20519;-58
2021/01/06 05:29:26;;;;;;;1.67;1.58;;;16.40;55.30;;;;;;5086727;28;20204;-60
2021/01/06 05:31:52;;;;;;;2.35;1.80;;;16.30;55.30;;;;;;5104319;28;20196;-60
2021/01/06 05:34:17;;;;;;;1.75;1.65;;;16.30;55.30;;;;;;5086562;28;20273;-59
2021/01/06 05:36:43;;;;;;;1.70;1.60;;;16.30;55.30;;;;;;5104777;28;20187;-59
2021/01/06 05:39:28;;;;;;;1.95;1.85;;;16.30;55.30;;;;;;5069614;28;20183;-61
2021/01/06 05:42:15;;;;;;;1.75;1.65;;;16.30;55.30;;;;;;5070135;28;20627;-61
2021/01/06 05:44:40;;;;;;;1.67;1.58;;;16.30;55.30;;;;;;5104722;28;20175;-61
2021/01/06 05:47:14;;;;;;;1.70;1.60;;;16.30;55.20;;;;;;5104434;28;20175;-61
2021/01/06 05:49:40;;;;;;;1.60;1.50;;;16.20;55.20;;;;;;5086484;28;20173;-61
2021/01/06 05:52:08;;;;;;;1.52;1.42;;;16.20;55.20;;;;;;5086539;28;20181;-60
2021/01/06 05:54:51;;;;;;;1.75;1.65;;;16.20;55.20;;;;;;5086247;28;20590;-61
2021/01/06 05:57:42;;;;;;;1.77;1.67;;;16.20;55.30;;;;;;5088007;28;20165;-59
2021/01/06 06:00:41;;;;;;;2.45;1.75;;;16.20;55.30;;;;;;5086259;28;20277;-59
2021/01/06 06:03:21;;;;;;;1.70;1.60;;;16.20;55.30;;;;;;5088824;28;20180;-56
2021/01/06 06:06:04;;;;;;;1.80;1.65;;;16.30;55.30;;;;;;5108531;28;20317;-59
2021/01/06 06:08:43;;;;;;;1.60;1.50;;;16.40;55.50;;;;;;5091602;28;20181;-59
2021/01/06 06:11:41;;;;;;;1.45;1.35;;;16.50;55.40;;;;;;5108425;28;20711;-59
2021/01/06 06:14:42;;;;;;;1.40;1.30;;;16.60;55.20;;;;;;5074043;28;20220;-60
2021/01/06 06:17:58;;;;;;;1.35;1.25;;;16.90;55.10;;;;;;5090319;28;20203;-59
2021/01/06 06:20:39;;;;;;;1.40;1.27;;;17.10;54.70;;;;;;5017235;28;20670;-61
2021/01/06 06:23:27;;;;;;;1.45;1.35;;;17.30;54.40;;;;;;4989271;28;20291;-58
2021/01/06 06:26:14;;;;;;;1.60;1.50;;;17.60;53.90;;;;;;5064004;28;20181;-60
2021/01/06 06:29:02;;;;;;;1.42;1.33;;;17.80;53.40;;;;;;5108101;28;20218;-61
2021/01/06 06:31:30;;;;;;;1.20;1.10;;;18.00;53.10;;;;;;5093250;28;20657;-60
2021/01/06 06:34:01;;;;;;;1.55;1.45;;;18.10;52.90;;;;;;5090387;28;20665;-60
2021/01/06 06:36:28;;;;;;;1.60;1.50;;;18.20;52.70;;;;;;5108195;28;20627;-60
2021/01/06 06:38:54;;;;;;;1.30;1.20;;;18.20;52.60;;;;;;5073631;28;20173;-61
2021/01/06 06:41:23;;;;;;;1.38;1.27;;;18.30;52.60;;;;;;5089634;28;20177;-61
2021/01/06 06:44:28;;;;;;;1.23;1.13;;;18.30;52.50;;;;;;5108152;28;20222;-62
2021/01/06 06:47:12;;;;;;;1.25;1.13;;;18.40;52.40;;;;;;5004985;28;20225;-62
2021/01/06 06:49:41;;;;;;;1.50;1.40;;;18.40;52.40;;;;;;5102654;28;20188;-60
2021/01/06 06:52:42;;;;;;;1.20;1.17;;;18.40;53.00;;;;;;5107840;28;20261;-61
2021/01/06 06:55:24;;;;;;;1.05;1.02;;;18.50;52.30;;;;;;5072141;28;20242;-60
2021/01/06 06:58:20;;;;;;;1.30;1.20;;;18.50;52.30;;;;;;5074380;28;20201;-61
2021/01/06 07:00:46;;;;;;;0.93;0.93;;;18.40;52.30;;;;;;5107560;28;20169;-60
2021/01/06 07:03:11;;;;;;;1.30;1.20;;;18.40;52.40;;;;;;5107947;28;20555;-60
2021/01/06 07:05:46;;;;;;;1.00;1.00;;;18.30;52.60;;;;;;5089491;28;20250;-59
2021/01/06 07:08:19;;;;;;;1.55;1.00;;;18.20;52.80;;;;;;5073059;28;20263;-60
2021/01/06 07:10:47;;;;;;;1.67;1.20;;;18.10;52.90;;;;;;5072809;28;20653;-61
2021/01/06 07:13:18;;;;;;;1.05;1.00;;;18.10;53.00;;;;;;5071458;28;20553;-60
2021/01/06 07:15:52;;;;;;;1.20;1.10;;;18.00;53.10;;;;;;5071920;28;20180;-59
2021/01/06 07:18:34;;;;;;;1.08;0.98;;;18.00;53.00;;;;;;5088794;28;20683;-61
2021/01/06 07:21:05;;;;;;;1.40;1.30;;;18.00;53.10;;;;;;5107302;28;20173;-60
2021/01/06 07:23:33;;;;;;;1.08;0.98;;;18.00;53.10;;;;;;5089362;28;20637;-60
2021/01/06 07:26:04;;;;;;;1.23;1.13;;;17.80;53.20;;;;;;5088843;28;21010;-59
2021/01/06 07:28:30;;;;;;;0.85;0.85;;;17.80;53.40;;;;;;5089153;28;20691;-57
2021/01/06 07:30:55;;;;;;;1.00;1.00;;;17.70;53.50;;;;;;5107066;28;20733;-60
2021/01/06 07:33:30;;;;;;;0.90;0.90;;;17.70;53.70;;;;;;5106915;28;20677;-59
2021/01/06 07:36:13;;;;;;;1.02;1.02;;;17.60;53.80;;;;;;5106699;28;20177;-59
2021/01/06 07:38:39;;;;;;;1.13;1.10;;;17.60;53.80;;;;;;5088850;28;20161;-61
2021/01/06 07:41:05;;;;;;;1.38;1.27;;;17.60;53.80;;;;;;5088744;28;20639;-60
2021/01/06 07:43:31;;;;;;;1.20;1.15;;;17.60;53.80;;;;;;5089039;28;20210;-60
2021/01/06 07:46:00;;;;;;;1.05;1.05;;;17.60;53.70;;;;;;5088676;28;20176;-61
2021/01/06 07:48:43;;;;;;;1.25;1.20;;;17.70;53.70;;;;;;5106714;28;20188;-60
2021/01/06 07:51:26;;;;;;;0.90;0.90;;;17.60;53.60;;;;;;5106801;28;20195;-60
2021/01/06 07:54:13;;;;;;;1.08;1.08;;;17.60;53.60;;;;;;5088461;28;20208;-61
2021/01/06 07:57:05;;;;;;;1.27;1.17;;;17.50;53.70;;;;;;5091266;28;20207;-61
2021/01/06 07:59:45;;;;;;;1.08;1.00;;;17.50;53.90;;;;;;5106349;28;20176;-61
2021/01/06 08:02:13;;;;;;;1.30;1.20;;;17.40;54.00;;;;;;5088253;28;20170;-58
2021/01/06 08:04:56;;;;;;;1.40;1.30;;;17.30;54.10;;;;;;5071656;28;20627;-60
2021/01/06 08:07:25;;;;;;;1.00;1.00;;;17.30;54.20;;;;;;5105598;28;20270;-60
2021/01/06 08:09:51;;;;;;;1.27;1.23;;;17.30;54.20;;;;;;5088715;28;20170;-61
2021/01/06 08:12:27;;;;;;;1.25;1.15;;;17.40;54.20;;;;;;5087907;28;20684;-61
2021/01/06 08:15:17;;;;;;;1.35;1.10;;;17.40;54.10;;;;;;5105875;28;20196;-61
2021/01/06 08:17:52;;;;;;;1.30;1.20;;;17.40;54.00;;;;;;5105461;28;20169;-59
2021/01/06 08:20:23;;;;;;;1.10;1.10;;;17.40;54.00;;;;;;5106058;28;20169;-60
2021/01/06 08:23:25;;;;;;;1.05;1.05;;;17.40;54.10;;;;;;5072017;28;20165;-61
2021/01/06 08:26:12;;;;;;;1.30;1.20;;;17.30;54.00;;;;;;5074166;28;20173;-60
2021/01/06 08:28:38;;;;;;;0.95;0.95;;;17.30;54.10;;;;;;5106064;28;20197;-60
2021/01/06 08:31:14;;;;;;;1.02;1.02;;;17.20;54.20;;;;;;5105914;28;20234;-59
2021/01/06 08:34:00;;;;;;;1.45;1.20;;;17.20;54.20;;;;;;5105957;28;20207;-57
2021/01/06 08:36:32;;;;;;;1.00;1.00;;;17.20;54.30;;;;;;5071685;28;20185;-61
2021/01/06 08:39:06;;;;;;;1.08;1.08;;;17.20;54.30;;;;;;5087756;28;20622;-58
2021/01/06 08:41:31;;;;;;;1.10;1.05;;;17.30;54.30;;;;;;5105676;28;20183;-58
2021/01/06 08:43:58;;;;;;;0.88;0.88;;;17.30;54.30;;;;;;5087407;28;20181;-62
2021/01/06 08:46:29;;;;;;;1.05;1.05;;;17.20;54.20;;;;;;5105507;28;20646;-64
2021/01/06 08:49:21;;;;;;;1.30;1.20;;;17.20;54.40;;;;;;5087544;28;20241;-63
2021/01/06 08:51:47;;;;;;;1.75;1.40;;;17.20;54.50;;;;;;5105496;28;20165;-64
2021/01/06 08:54:19;;;;;;;1.70;1.60;;;17.10;54.80;;;;;;5087040;28;20255;-64
2021/01/06 08:56:44;;;;;;;4.65;2.17;;;17.10;55.00;;;;;;5070288;28;20227;-64
2021/01/06 08:59:26;;;;;;;2.30;1.50;;;17.10;55.20;;;;;;5070336;28;20209;-64
2021/01/06 09:01:55;;;;;;;2.55;1.65;;;17.10;55.20;;;;;;5105535;28;20259;-64
2021/01/06 09:04:33;;;;;;;2.05;1.52;;;17.10;55.20;;;;;;5070707;28;20702;-63
2021/01/06 09:07:22;;;;;;;2.85;1.70;;;17.10;55.10;;;;;;5105299;28;20177;-64
2021/01/06 09:10:09;;;;;;;4.28;1.60;;;17.20;55.20;;;;;;5087149;28;20256;-63
2021/01/06 09:12:48;;;;;;;1.92;1.60;;;17.20;55.10;;;;;;5087053;28;20169;-63
2021/01/06 09:15:26;;;;;;;1.92;1.67;;;17.20;55.00;;;;;;5086951;28;20237;-63
2021/01/06 09:17:57;;;;;;;3.83;2.05;;;17.30;55.00;;;;;;5087330;28;20168;-63
2021/01/06 09:20:36;;;;;;;2.22;1.75;;;17.30;54.70;;;;;;5086930;28;20237;-64
2021/01/06 09:23:02;;;;;;;2.15;1.60;;;17.40;54.60;;;;;;5071553;28;20729;-65
2021/01/06 09:25:28;;;;;;;2.15;1.58;;;17.50;54.60;;;;;;5086625;28;20169;-64
2021/01/06 09:27:53;;;;;;;1.88;1.70;;;17.50;54.40;;;;;;5086630;28;20184;-62
2021/01/06 09:30:24;;;;;;;1.73;1.45;;;17.50;54.20;;;;;;5069563;28;20527;-64
2021/01/06 09:32:50;;;;;;;1.60;1.50;;;17.70;54.10;;;;;;5086384;28;20246;-64
2021/01/06 09:35:21;;;;;;;2.50;1.73;;;17.70;53.90;;;;;;5070122;28;20222;-65
2021/01/06 09:37:59;;;;;;;2.92;1.48;;;17.80;53.80;;;;;;5069372;28;20180;-64
2021/01/06 09:40:25;;;;;;;2.25;1.50;;;17.80;53.50;;;;;;5105013;28;20176;-64
2021/01/06 09:42:59;;;;;;;1.80;1.48;;;17.90;53.40;;;;;;5104791;28;20264;-64
2021/01/06 09:45:26;;;;;;;2.70;2.50;;;18.00;53.00;;;;;;5086417;28;20529;-63
2021/01/06 09:48:02;;;;;;;2.85;2.40;;;17.90;52.00;;;;;;5069304;28;20245;-62
2021/01/06 09:50:34;;;;;;;2.67;2.22;;;17.90;51.30;;;;;;5104692;28;20169;-61
2021/01/06 09:53:01;;;;;;;3.35;1.95;;;17.90;51.70;;;;;;5086542;28;20211;-62
2021/01/06 09:55:27;;;;;;;3.67;1.85;;;18.00;51.80;;;;;;5069505;28;20253;-65
2021/01/06 09:58:07;;;;;;;2.55;1.75;;;18.10;51.70;;;;;;5069441;28;20204;-65
2021/01/06 10:00:50;;;;;;;4.20;1.90;;;18.10;51.80;;;;;;5086442;28;20266;-66
2021/01/06 10:03:16;;;;;;;1.92;1.60;;;18.20;51.90;;;;;;5069869;28;20200;-65
2021/01/06 10:05:51;;;;;;;3.97;1.50;;;18.20;51.90;;;;;;5104187;28;20958;-63
2021/01/06 10:08:33;;;;;;;2.85;1.63;;;18.30;51.90;;;;;;5070664;28;20267;-65
2021/01/06 10:11:27;;;;;;;1.77;1.42;;;18.40;51.90;;;;;;5069949;28;20173;-64
2021/01/06 10:13:58;;;;;;;1.40;1.30;;;18.40;51.90;;;;;;5070474;28;20307;-65
2021/01/06 10:16:28;;;;;;;1.95;1.40;;;18.40;52.00;;;;;;5086204;28;20177;-64
2021/01/06 10:19:27;;;;;;;2.05;1.65;;;18.40;52.30;;;;;;5070134;28;20267;-64
2021/01/06 10:22:02;;;;;;;2.17;1.58;;;18.40;52.50;;;;;;5104569;28;20165;-63
2021/01/06 10:24:52;;;;;;;2.00;1.10;;;18.30;52.70;;;;;;5087428;28;20183;-64
2021/01/06 10:27:26;;;;;;;2.97;1.27;;;18.20;52.70;;;;;;5085626;28;20187;-64
2021/01/06 10:29:53;;;;;;;1.92;1.00;;;18.20;52.90;;;;;;5069607;28;20518;-64
2021/01/06 10:32:46;;;;;;;3.13;1.33;;;18.10;53.10;;;;;;5104418;28;20204;-63
2021/01/06 10:35:30;;;;;;;1.83;1.27;;;18.10;53.20;;;;;;5104154;28;20185;-63
2021/01/06 10:37:56;;;;;;;1.30;1.20;;;18.00;53.30;;;;;;5104378;28;20201;-64
2021/01/06 10:40:35;;;;;;;1.70;1.15;;;18.00;53.50;;;;;;5086163;28;20229;-63
2021/01/06 10:43:36;;;;;;;1.58;1.30;;;17.90;53.60;;;;;;5104135;28;20214;-63
2021/01/06 10:46:03;;;;;;;2.10;1.45;;;17.80;53.70;;;;;;5104220;28;20184;-65
2021/01/06 10:48:41;;;;;;;3.78;1.17;;;17.80;54.00;;;;;;5070382;28;20559;-63
2021/01/06 10:51:06;;;;;;;2.67;1.40;;;17.70;54.10;;;;;;5089570;28;21010;-64
2021/01/06 10:53:32;;;;;;;1.55;1.17;;;17.70;54.20;;;;;;5107678;28;20239;-65
2021/01/06 10:56:09;;;;;;;1.58;1.30;;;17.60;54.20;;;;;;5107788;28;20716;-63
2021/01/06 10:58:40;;;;;;;1.27;1.10;;;17.60;54.30;;;;;;5107932;28;20618;-64
2021/01/06 11:01:08;;;;;;;1.95;0.98;;;17.50;54.40;;;;;;5107603;28;20169;-64
2021/01/06 11:03:36;;;;;;;1.45;1.30;;;17.50;54.50;;;;;;5107561;28;20230;-63
2021/01/06 11:06:04;;;;;;;1.50;1.33;;;17.50;54.50;;;;;;5089447;28;20669;-63
2021/01/06 11:08:44;;;;;;;1.35;1.20;;;17.40;54.60;;;;;;5089276;28;20549;-64
2021/01/06 11:11:39;;;;;;;1.10;1.10;;;17.40;54.60;;;;;;5073851;28;20208;-62
2021/01/06 11:14:32;;;;;;;1.88;1.30;;;17.40;54.70;;;;;;5090548;28;20208;-64
2021/01/06 11:17:21;;;;;;;1.77;1.25;;;17.40;54.80;;;;;;5107412;28;20180;-63
2021/01/06 11:20:00;;;;;;;1.25;1.13;;;17.40;54.80;;;;;;5075263;28;20197;-63
2021/01/06 11:22:46;;;;;;;2.10;1.20;;;17.40;54.70;;;;;;5073250;28;20201;-64
2021/01/06 11:25:30;;;;;;;2.25;1.00;;;17.50;54.80;;;;;;5089602;28;20169;-64
2021/01/06 11:27:56;;;;;;;1.30;1.10;;;17.50;54.80;;;;;;5106791;28;20188;-64
2021/01/06 11:30:32;;;;;;;1.58;1.25;;;17.50;54.70;;;;;;5107107;28;20176;-66
2021/01/06 11:33:19;;;;;;;1.60;1.10;;;17.40;54.70;;;;;;5088833;28;20303;-64
2021/01/06 11:35:56;;;;;;;1.42;1.20;;;17.40;54.80;;;;;;5088643;28;20180;-64
2021/01/06 11:38:40;;;;;;;1.48;1.23;;;17.40;54.90;;;;;;5073018;28;20183;-65
2021/01/06 11:41:32;;;;;;;1.35;1.20;;;17.40;55.00;;;;;;5106889;28;20253;-64
2021/01/06 11:44:09;;;;;;;0.98;0.95;;;17.40;55.00;;;;;;5067980;28;20224;-63
2021/01/06 11:47:03;;;;;;;1.27;1.17;;;17.40;55.00;;;;;;5090216;28;20191;-63
2021/01/06 11:49:38;;;;;;;2.05;1.20;;;17.30;55.00;;;;;;5088392;28;20207;-63
2021/01/06 11:52:18;;;;;;;1.38;1.27;;;17.40;55.00;;;;;;5106636;28;20249;-61
2021/01/06 11:54:47;;;;;;;1.45;1.30;;;17.40;55.00;;;;;;5106363;28;20717;-63
2021/01/06 11:57:32;;;;;;;1.50;1.40;;;17.40;54.90;;;;;;5071451;28;20659;-63
2021/01/06 12:00:13;;;;;;;1.23;1.13;;;17.40;55.00;;;;;;5089759;28;20173;-63
2021/01/06 12:02:40;;;;;;;0.93;0.93;;;17.30;55.00;;;;;;5106392;28;20180;-63
2021/01/06 12:05:23;;;;;;;1.80;1.20;;;17.30;55.10;;;;;;5071950;28;20241;-62
2021/01/06 12:08:13;;;;;;;1.30;1.17;;;17.30;55.80;;;;;;5089021;28;20173;-61
2021/01/06 12:11:02;;;;;;;0.75;0.70;;;17.30;55.20;;;;;;5106433;28;20176;-62
2021/01/06 12:14:02;;;;;;;1.35;1.20;;;17.20;55.20;;;;;;5090788;28;20307;-63
2021/01/06 12:16:42;;;;;;;2.10;1.08;;;17.20;55.30;;;;;;5074549;28;20288;-62
2021/01/06 12:19:07;;;;;;;1.25;1.10;;;17.20;55.30;;;;;;5088106;28;20161;-65
2021/01/06 12:21:36;;;;;;;1.27;1.17;;;17.20;55.30;;;;;;5106075;28;20169;-64
2021/01/06 12:24:21;;;;;;;1.17;1.08;;;17.20;55.30;;;;;;5106106;28;20259;-63
2021/01/06 12:27:03;;;;;;;1.30;1.17;;;17.10;55.30;;;;;;5106254;28;20187;-64
2021/01/06 12:29:59;;;;;;;1.63;1.13;;;17.10;55.30;;;;;;5105710;28;20283;-63
2021/01/06 12:32:27;;;;;;;2.03;1.20;;;17.10;55.20;;;;;;5015609;28;20220;-65
2021/01/06 12:35:05;;;;;;;1.00;1.00;;;17.10;55.30;;;;;;5105670;28;20204;-66
2021/01/06 12:37:33;;;;;;;2.08;1.20;;;17.00;55.20;;;;;;5088756;28;20187;-63
2021/01/06 12:40:15;;;;;;;1.95;1.17;;;17.00;55.30;;;;;;5106056;28;20169;-63
2021/01/06 12:43:00;;;;;;;1.33;1.23;;;17.00;55.30;;;;;;5087446;28;20226;-61
2021/01/06 12:45:31;;;;;;;2.20;1.75;;;17.10;55.30;;;;;;5105696;28;20183;-65
2021/01/06 12:48:24;;;;;;;2.28;1.45;;;17.10;55.10;;;;;;5070824;28;20230;-65
2021/01/06 12:51:12;;;;;;;1.50;1.20;;;17.30;55.10;;;;;;5083246;28;20181;-64
2021/01/06 12:53:40;;;;;;;1.38;1.00;;;17.20;55.00;;;;;;5091548;28;20229;-65
2021/01/06 12:56:11;;;;;;;1.10;1.00;;;17.20;54.90;;;;;;5087502;28;20233;-65
2021/01/06 12:58:58;;;;;;;2.40;1.30;;;17.10;54.90;;;;;;5087618;28;20173;-65
2021/01/06 13:01:28;;;;;;;1.30;1.20;;;17.10;54.90;;;;;;5086807;28;20173;-64
2021/01/06 13:03:57;;;;;;;2.08;1.38;;;17.20;55.00;;;;;;5087322;28;20173;-64
2021/01/06 13:06:33;;;;;;;1.98;1.38;;;17.10;55.00;;;;;;5105564;28;20204;-64
2021/01/06 13:09:12;;;;;;;1.63;1.20;;;17.20;55.00;;;;;;5105173;28;20218;-64
2021/01/06 13:11:38;;;;;;;1.77;1.30;;;17.20;55.00;;;;;;5087851;28;20602;-62
2021/01/06 13:14:24;;;;;;;1.35;1.25;;;17.20;55.10;;;;;;5105018;28;20289;-65
2021/01/06 13:16:55;;;;;;;1.98;1.38;;;17.20;55.20;;;;;;5071138;28;20639;-64
2021/01/06 13:19:31;;;;;;;3.42;1.45;;;17.30;55.00;;;;;;5070292;28;20177;-65
2021/01/06 13:22:24;;;;;;;3.70;1.90;;;17.50;54.90;;;;;;5104708;28;20173;-64
2021/01/06 13:25:09;;;;;;;4.32;1.42;;;17.80;54.20;;;;;;5089365;28;20180;-63
2021/01/06 13:27:58;;;;;;;2.88;1.70;;;18.20;53.70;;;;;;5104501;28;20185;-63